Time;durP1;ratioP1;P1;durP2;ratioP2;P2;SDS_P1;SDS_P2;PMS_P1;PMS_P2;Temp;Humidity;BMP_temperature;BMP_pressure;BME280_temperature;BME280_humidity;BME280_pressure;Samples;Min_cycle;Max_cycle;Signal;HPM_P1;HPM_P2
2024/03/28 00:01:17;;;;;;;4.07;3.67;;;;;;;;;;5066990;28;20551;-87
2024/03/28 00:04:22;;;;;;;4.00;3.70;;;;;;;;;;5054798;28;20640;-87
2024/03/28 00:07:26;;;;;;;4.73;4.23;;;;;;;;;;5067175;28;20171;-87
2024/03/28 00:10:30;;;;;;;4.17;3.77;;;;;;;;;;5044442;28;20171;-87
2024/03/28 00:13:34;;;;;;;4.63;4.13;;;;;;;;;;5066231;28;20180;-87
2024/03/28 00:16:39;;;;;;;4.80;4.17;;;;;;;;;;5077779;28;20215;-87
2024/03/28 00:19:43;;;;;;;5.00;4.30;;;;;;;;;;5043409;28;20175;-87
2024/03/28 00:22:47;;;;;;;4.80;4.40;;;;;;;;;;5065217;28;20180;-87
2024/03/28 00:25:55;;;;;;;5.17;4.30;;;;;;;;;;5066129;28;20219;-87
2024/03/28 00:28:59;;;;;;;4.93;4.43;;;;;;;;;;5043473;28;20207;-87
2024/03/28 00:32:41;;;;;;;4.70;4.03;;;;;;;;;;5057918;28;20180;-87
2024/03/28 00:37:01;;;;;;;5.00;4.43;;;;;;;;;;5081676;28;20215;-87
2024/03/28 00:45:16;;;;;;;6.07;4.40;;;;;;;;;;5067646;28;20195;-87
2024/03/28 00:53:49;;;;;;;5.03;4.27;;;;;;;;;;5070531;28;20199;-87
2024/03/28 00:57:43;;;;;;;5.50;4.97;;;;;;;;;;5054510;28;20215;-87
2024/03/28 01:02:08;;;;;;;5.47;4.77;;;;;;;;;;5078978;28;20176;-87
2024/03/28 01:06:13;;;;;;;5.13;4.60;;;;;;;;;;5068715;28;20223;-87
2024/03/28 01:09:50;;;;;;;5.30;4.80;;;;;;;;;;5054852;28;20668;-86
2024/03/28 01:13:05;;;;;;;5.73;4.77;;;;;;;;;;5043943;28;20187;-87
2024/03/28 01:16:35;;;;;;;5.97;4.97;;;;;;;;;;5044671;28;20211;-87
2024/03/28 01:20:41;;;;;;;5.90;5.30;;;;;;;;;;5067168;28;20172;-87
2024/03/28 01:25:47;;;;;;;5.53;4.80;;;;;;;;;;5078792;28;20540;-86
2024/03/28 01:30:37;;;;;;;5.00;4.50;;;;;;;;;;5078327;28;20207;-87
2024/03/28 01:37:51;;;;;;;5.87;5.03;;;;;;;;;;5065662;28;20184;-86
2024/03/28 01:40:57;;;;;;;6.43;5.20;;;;;;;;;;5054500;28;20179;-86
2024/03/28 01:44:50;;;;;;;9.10;5.40;;;;;;;;;;5078436;28;20196;-86
2024/03/28 01:49:01;;;;;;;6.13;5.27;;;;;;;;;;5078062;28;20624;-87
2024/03/28 01:52:45;;;;;;;6.73;5.03;;;;;;;;;;5054274;28;20204;-86
2024/03/28 02:02:01;;;;;;;6.23;4.80;;;;;;;;;;5014003;28;20201;-86
2024/03/28 02:06:40;;;;;;;6.80;5.10;;;;;;;;;;5008161;28;20237;-87
2024/03/28 02:10:12;;;;;;;7.53;5.13;;;;;;;;;;5013197;28;20225;-86
2024/03/28 02:13:17;;;;;;;6.27;5.10;;;;;;;;;;5051135;28;20195;-86
2024/03/28 02:16:21;;;;;;;6.03;4.90;;;;;;;;;;5050902;28;20289;-87
2024/03/28 02:19:25;;;;;;;7.23;5.50;;;;;;;;;;5073549;28;20175;-87
2024/03/28 02:22:29;;;;;;;7.43;5.70;;;;;;;;;;5050912;28;20179;-87
2024/03/28 02:25:34;;;;;;;7.80;5.73;;;;;;;;;;5050811;28;20211;-86
2024/03/28 02:28:38;;;;;;;8.20;5.67;;;;;;;;;;5062137;28;20180;-87
2024/03/28 02:31:42;;;;;;;8.30;5.57;;;;;;;;;;5050929;28;20171;-86
2024/03/28 02:34:46;;;;;;;9.23;5.80;;;;;;;;;;5039825;28;20175;-87
2024/03/28 02:37:50;;;;;;;6.07;4.63;;;;;;;;;;5062081;28;20544;-87
2024/03/28 02:40:54;;;;;;;8.83;4.63;;;;;;;;;;5039347;28;20660;-87
2024/03/28 02:43:58;;;;;;;7.27;5.30;;;;;;;;;;5062174;28;20182;-87
2024/03/28 02:47:03;;;;;;;7.23;5.30;;;;;;;;;;5061865;28;20214;-86
2024/03/28 02:50:08;;;;;;;9.83;6.10;;;;;;;;;;5050283;28;20215;-87
2024/03/28 02:53:12;;;;;;;9.70;5.13;;;;;;;;;;5039195;28;20180;-87
2024/03/28 02:56:17;;;;;;;8.23;5.57;;;;;;;;;;5050526;28;20218;-86
2024/03/28 02:59:21;;;;;;;10.47;5.77;;;;;;;;;;5073424;28;20180;-87
2024/03/28 03:02:25;;;;;;;9.30;4.97;;;;;;;;;;5038809;28;20195;-87
2024/03/28 03:05:29;;;;;;;7.53;5.03;;;;;;;;;;5038840;28;20695;-87
2024/03/28 03:08:33;;;;;;;6.57;4.47;;;;;;;;;;5038867;28;20640;-86
2024/03/28 03:11:37;;;;;;;6.97;4.70;;;;;;;;;;5039049;28;20203;-87
2024/03/28 03:14:41;;;;;;;7.57;5.10;;;;;;;;;;5061478;28;20183;-87
2024/03/28 03:17:46;;;;;;;6.63;4.67;;;;;;;;;;5054991;28;20184;-87
2024/03/28 03:21:00;;;;;;;6.70;4.57;;;;;;;;;;5043854;28;20176;-87
2024/03/28 03:24:05;;;;;;;9.17;4.67;;;;;;;;;;5072296;28;20180;-87
2024/03/28 03:27:16;;;;;;;6.77;4.33;;;;;;;;;;5070792;28;20230;-87
2024/03/28 03:37:51;;;;;;;5.20;3.67;;;;;;;;;;5065796;28;20184;-87
2024/03/28 03:40:58;;;;;;;6.17;4.20;;;;;;;;;;5042979;28;20184;-86
2024/03/28 03:44:28;;;;;;;5.77;3.43;;;;;;;;;;5054436;28;20187;-86
2024/03/28 03:47:32;;;;;;;4.40;3.27;;;;;;;;;;5054521;28;20167;-86
2024/03/28 03:51:10;;;;;;;4.53;3.43;;;;;;;;;;5054373;28;20203;-86
2024/03/28 03:59:40;;;;;;;6.40;3.93;;;;;;;;;;5066152;28;20176;-86
2024/03/28 04:07:32;;;;;;;5.20;3.40;;;;;;;;;;5082078;28;20184;-87
2024/03/28 04:16:33;;;;;;;4.73;3.50;;;;;;;;;;5070534;28;20231;-87
2024/03/28 04:19:37;;;;;;;5.43;3.73;;;;;;;;;;5070764;28;20191;-87
2024/03/28 04:22:41;;;;;;;6.17;3.80;;;;;;;;;;5058477;28;20179;-87
2024/03/28 04:25:56;;;;;;;5.90;3.30;;;;;;;;;;5058670;28;20215;-87
2024/03/28 04:29:03;;;;;;;5.90;3.00;;;;;;;;;;5062186;28;20176;-87
2024/03/28 04:32:07;;;;;;;5.07;2.67;;;;;;;;;;5061780;28;20163;-87
2024/03/28 04:35:11;;;;;;;3.67;2.93;;;;;;;;;;5062050;28;20644;-87
2024/03/28 04:38:15;;;;;;;5.27;3.20;;;;;;;;;;5050300;28;20184;-86
2024/03/28 04:41:19;;;;;;;5.17;3.07;;;;;;;;;;5072825;28;20176;-87
2024/03/28 04:44:24;;;;;;;4.67;2.87;;;;;;;;;;5072334;28;20183;-87
2024/03/28 04:47:28;;;;;;;4.83;2.97;;;;;;;;;;5048509;28;20183;-87
2024/03/28 04:50:32;;;;;;;6.77;3.67;;;;;;;;;;5083034;28;20582;-87
2024/03/28 04:53:36;;;;;;;4.47;3.23;;;;;;;;;;5071198;28;20179;-86
2024/03/28 04:56:41;;;;;;;5.53;3.73;;;;;;;;;;5059336;28;20613;-87
2024/03/28 04:59:45;;;;;;;5.53;3.30;;;;;;;;;;5047951;28;20547;-86
2024/03/28 05:02:50;;;;;;;3.60;2.80;;;;;;;;;;5058940;28;20183;-87
2024/03/28 05:05:54;;;;;;;4.10;2.80;;;;;;;;;;5069562;28;20215;-87
2024/03/28 05:08:58;;;;;;;3.47;2.47;;;;;;;;;;5058076;28;20554;-87
2024/03/28 05:12:23;;;;;;;5.70;3.37;;;;;;;;;;5057521;28;20542;-87
2024/03/28 05:16:23;;;;;;;5.30;3.30;;;;;;;;;;5051573;28;20634;-87
2024/03/28 05:20:14;;;;;;;5.50;3.27;;;;;;;;;;5075526;28;20598;-87
2024/03/28 05:23:18;;;;;;;6.03;3.60;;;;;;;;;;5056430;28;20554;-87
2024/03/28 05:26:22;;;;;;;4.00;2.73;;;;;;;;;;5055904;28;20609;-87
2024/03/28 05:29:27;;;;;;;3.97;3.00;;;;;;;;;;5045113;28;20550;-89
2024/03/28 05:32:31;;;;;;;3.97;2.47;;;;;;;;;;5045186;28;20907;-88
2024/03/28 05:35:35;;;;;;;3.57;2.73;;;;;;;;;;5055488;28;20990;-87
2024/03/28 05:38:39;;;;;;;3.67;2.47;;;;;;;;;;5055308;28;20550;-87
2024/03/28 05:41:43;;;;;;;3.43;2.17;;;;;;;;;;5055663;28;20546;-87
2024/03/28 05:44:47;;;;;;;2.53;2.00;;;;;;;;;;5055181;28;20183;-87
2024/03/28 05:47:52;;;;;;;3.53;2.20;;;;;;;;;;5066114;28;20175;-87
2024/03/28 05:50:56;;;;;;;2.80;1.97;;;;;;;;;;5054963;28;20205;-88
2024/03/28 05:54:00;;;;;;;2.97;2.30;;;;;;;;;;5054086;28;20179;-88
2024/03/28 05:57:06;;;;;;;4.37;2.97;;;;;;;;;;5054077;28;20210;-89
2024/03/28 06:00:11;;;;;;;5.53;3.70;;;;;;;;;;5042553;28;20176;-90
2024/03/28 06:03:17;;;;;;;3.67;2.50;;;;;;;;;;5053641;28;20225;-89
2024/03/28 06:06:21;;;;;;;3.43;2.90;;;;;;;;;;5053598;28;20215;-91
2024/03/28 06:09:26;;;;;;;4.93;3.50;;;;;;;;;;5054889;28;20175;-90
2024/03/28 06:12:30;;;;;;;4.30;3.20;;;;;;;;;;5064905;28;20176;-89
2024/03/28 06:15:34;;;;;;;4.27;3.20;;;;;;;;;;5053120;28;20215;-90
2024/03/28 06:18:38;;;;;;;2.90;2.57;;;;;;;;;;5053062;28;20632;-90
2024/03/28 06:21:43;;;;;;;2.07;1.70;;;;;;;;;;5053512;28;20207;-90
2024/03/28 06:24:47;;;;;;;1.70;1.10;;;;;;;;;;5041401;28;20175;-87
2024/03/28 06:27:51;;;;;;;1.53;1.40;;;;;;;;;;5041528;28;20172;-87
2024/03/28 06:30:56;;;;;;;1.90;1.60;;;;;;;;;;5041559;28;20199;-87
2024/03/28 06:34:00;;;;;;;1.80;1.67;;;;;;;;;;5064592;28;20180;-87
2024/03/28 06:37:05;;;;;;;2.33;1.40;;;;;;;;;;5052655;28;20214;-87
2024/03/28 06:40:10;;;;;;;1.87;1.50;;;;;;;;;;5041234;28;20176;-87
2024/03/28 06:43:14;;;;;;;1.10;1.00;;;;;;;;;;5052907;28;20179;-87
2024/03/28 06:46:18;;;;;;;1.07;0.87;;;;;;;;;;5063431;28;20219;-87
2024/03/28 06:49:22;;;;;;;2.63;0.90;;;;;;;;;;5051396;28;20179;-88
2024/03/28 06:52:27;;;;;;;25.67;8.53;;;;;;;;;;5040123;28;20536;-86
2024/03/28 06:55:31;;;;;;;10.57;4.53;;;;;;;;;;5064640;28;20218;-86
2024/03/28 06:58:35;;;;;;;10.30;6.53;;;;;;;;;;5063207;28;20167;-88
2024/03/28 07:01:42;;;;;;;7.30;4.53;;;;;;;;;;5063096;28;20175;-87
2024/03/28 07:04:47;;;;;;;1.47;1.37;;;;;;;;;;5067909;28;20180;-88
2024/03/28 07:07:55;;;;;;;1.10;0.97;;;;;;;;;;5068147;28;20180;-88
2024/03/28 07:11:02;;;;;;;1.83;0.80;;;;;;;;;;5045183;28;20199;-88
2024/03/28 07:14:07;;;;;;;1.00;0.80;;;;;;;;;;5066645;28;20183;-87
2024/03/28 07:17:11;;;;;;;0.77;0.70;;;;;;;;;;5044123;28;20219;-87
2024/03/28 07:20:15;;;;;;;0.67;0.67;;;;;;;;;;5067614;28;20179;-87
2024/03/28 07:23:23;;;;;;;0.73;0.60;;;;;;;;;;5043889;28;20183;-87
2024/03/28 07:26:27;;;;;;;1.70;0.80;;;;;;;;;;5065813;28;20218;-87
2024/03/28 07:29:32;;;;;;;1.13;0.80;;;;;;;;;;5055107;28;20624;-87
2024/03/28 07:32:36;;;;;;;1.37;0.90;;;;;;;;;;5075265;28;20171;-87
2024/03/28 07:35:40;;;;;;;1.03;0.83;;;;;;;;;;5075858;28;20572;-87
2024/03/28 07:38:44;;;;;;;2.00;0.70;;;;;;;;;;5062787;28;20179;-87
2024/03/28 07:41:48;;;;;;;0.70;0.67;;;;;;;;;;5075231;28;20179;-87
2024/03/28 07:44:52;;;;;;;1.00;0.80;;;;;;;;;;5075465;28;20616;-87
2024/03/28 07:47:57;;;;;;;1.67;0.80;;;;;;;;;;5062564;28;20253;-87
2024/03/28 07:51:02;;;;;;;1.00;0.70;;;;;;;;;;5051486;28;20203;-87
2024/03/28 07:54:06;;;;;;;0.80;0.80;;;;;;;;;;5075680;28;20184;-87
2024/03/28 07:57:10;;;;;;;2.13;0.50;;;;;;;;;;5062780;28;20214;-87
2024/03/28 08:00:15;;;;;;;0.60;0.60;;;;;;;;;;5063382;28;20179;-87
2024/03/28 08:03:20;;;;;;;2.90;0.70;;;;;;;;;;5068511;28;20172;-86
2024/03/28 08:06:25;;;;;;;0.50;0.50;;;;;;;;;;5056681;28;20215;-87
2024/03/28 08:09:29;;;;;;;0.70;0.60;;;;;;;;;;5068175;28;20188;-87
2024/03/28 08:12:33;;;;;;;0.40;0.37;;;;;;;;;;5068045;28;20207;-87
2024/03/28 08:15:37;;;;;;;0.60;0.50;;;;;;;;;;5055748;28;20552;-86
2024/03/28 08:18:42;;;;;;;1.10;0.50;;;;;;;;;;5066629;28;20179;-87
2024/03/28 08:21:46;;;;;;;0.40;0.40;;;;;;;;;;5078230;28;20663;-87
2024/03/28 08:24:50;;;;;;;0.53;0.40;;;;;;;;;;5055374;28;20179;-87
2024/03/28 08:27:56;;;;;;;1.07;0.40;;;;;;;;;;5055113;28;20176;-86
2024/03/28 08:31:00;;;;;;;0.60;0.40;;;;;;;;;;5080099;28;20204;-87
2024/03/28 08:34:05;;;;;;;0.53;0.47;;;;;;;;;;5068100;28;20188;-87
2024/03/28 08:37:10;;;;;;;1.30;0.40;;;;;;;;;;5068816;28;20219;-87
2024/03/28 08:40:14;;;;;;;1.63;0.50;;;;;;;;;;5067613;28;20183;-85
2024/03/28 08:47:44;;;;;;;1.03;0.40;;;;;;;;;;5066684;28;20175;-87
2024/03/28 08:50:49;;;;;;;0.50;0.50;;;;;;;;;;5043244;28;20183;-87
2024/03/28 08:53:59;;;;;;;0.77;0.53;;;;;;;;;;5054728;28;20187;-87
2024/03/28 08:57:03;;;;;;;0.93;0.60;;;;;;;;;;5065674;28;20212;-87
2024/03/28 09:00:10;;;;;;;2.57;0.50;;;;;;;;;;5065299;28;20183;-87
2024/03/28 09:03:15;;;;;;;0.47;0.47;;;;;;;;;;5054136;28;20192;-87
2024/03/28 09:06:20;;;;;;;1.27;0.60;;;;;;;;;;5065604;28;20211;-87
2024/03/28 09:09:24;;;;;;;0.87;0.60;;;;;;;;;;5065948;28;20183;-87
2024/03/28 09:12:28;;;;;;;0.60;0.60;;;;;;;;;;5053311;28;20207;-87
2024/03/28 09:15:57;;;;;;;0.50;0.50;;;;;;;;;;5065143;28;20219;-87
2024/03/28 09:19:06;;;;;;;1.13;0.70;;;;;;;;;;5064997;28;20172;-87
2024/03/28 09:22:10;;;;;;;1.27;0.77;;;;;;;;;;5065069;28;20664;-87
2024/03/28 09:25:14;;;;;;;0.90;0.50;;;;;;;;;;5042273;28;20635;-87
2024/03/28 09:28:18;;;;;;;1.27;0.90;;;;;;;;;;5053573;28;20187;-87
2024/03/28 09:31:28;;;;;;;11.90;5.23;;;;;;;;;;5053310;28;20199;-87
2024/03/28 09:34:32;;;;;;;4.47;1.87;;;;;;;;;;5053349;28;20180;-87
2024/03/28 09:37:36;;;;;;;1.13;0.70;;;;;;;;;;5065283;28;20517;-87
2024/03/28 09:40:54;;;;;;;2.37;0.40;;;;;;;;;;5064497;28;20624;-87
2024/03/28 09:44:02;;;;;;;0.60;0.50;;;;;;;;;;5053160;28;20629;-88
2024/03/28 09:47:08;;;;;;;3.47;0.70;;;;;;;;;;5052711;28;20676;-88
2024/03/28 09:50:18;;;;;;;11.47;6.83;;;;;;;;;;5064695;28;20184;-87
2024/03/28 09:53:24;;;;;;;3.00;1.93;;;;;;;;;;5064563;28;20179;-88
2024/03/28 09:56:28;;;;;;;0.90;0.60;;;;;;;;;;5075566;28;20223;-87
2024/03/28 09:59:32;;;;;;;2.00;0.80;;;;;;;;;;5052899;28;20183;-87
2024/03/28 10:03:19;;;;;;;1.37;0.60;;;;;;;;;;5064371;28;20175;-87
2024/03/28 10:06:23;;;;;;;0.80;0.63;;;;;;;;;;5076225;28;20219;-87
2024/03/28 10:09:28;;;;;;;0.67;0.40;;;;;;;;;;5053606;28;20549;-92
2024/03/28 10:12:34;;;;;;;1.23;0.60;;;;;;;;;;5053536;28;20565;-92
2024/03/28 10:15:39;;;;;;;0.67;0.60;;;;;;;;;;5052747;28;20215;-92
2024/03/28 10:18:47;;;;;;;0.57;0.40;;;;;;;;;;5042111;28;20183;-92
2024/03/28 10:21:51;;;;;;;1.97;0.40;;;;;;;;;;5064802;28;20199;-92
2024/03/28 10:24:56;;;;;;;0.57;0.57;;;;;;;;;;5052211;28;20175;-92
2024/03/28 10:28:00;;;;;;;0.30;0.30;;;;;;;;;;5075942;28;20176;-92
2024/03/28 10:31:04;;;;;;;1.90;0.60;;;;;;;;;;5041741;28;20184;-92
2024/03/28 10:34:15;;;;;;;0.40;0.40;;;;;;;;;;5041533;28;20184;-92
2024/03/28 10:37:20;;;;;;;2.00;0.50;;;;;;;;;;5053050;28;20703;-92
2024/03/28 10:40:25;;;;;;;0.60;0.40;;;;;;;;;;5041547;28;20191;-92
2024/03/28 10:43:32;;;;;;;1.13;0.70;;;;;;;;;;5066077;28;20176;-94
2024/03/28 10:46:39;;;;;;;2.10;0.73;;;;;;;;;;5042388;28;20211;-89
2024/03/28 10:49:50;;;;;;;1.57;0.90;;;;;;;;;;5064690;28;20176;-90
2024/03/28 10:52:59;;;;;;;0.60;0.60;;;;;;;;;;5063931;28;20199;-90
2024/03/28 10:56:10;;;;;;;1.07;0.93;;;;;;;;;;5040788;28;20215;-89
2024/03/28 10:59:16;;;;;;;2.13;1.00;;;;;;;;;;5051894;28;20175;-89
2024/03/28 11:02:22;;;;;;;1.00;0.80;;;;;;;;;;5040935;28;20238;-89
2024/03/28 11:05:29;;;;;;;1.30;0.80;;;;;;;;;;5063619;28;20210;-89
2024/03/28 11:08:33;;;;;;;1.53;0.70;;;;;;;;;;5051965;28;20548;-90
2024/03/28 11:11:39;;;;;;;1.10;0.60;;;;;;;;;;5040740;28;20199;-89
2024/03/28 11:14:58;;;;;;;1.33;0.70;;;;;;;;;;5062785;28;20184;-89
2024/03/28 11:18:03;;;;;;;0.60;0.50;;;;;;;;;;5064324;28;20179;-89
2024/03/28 11:21:08;;;;;;;0.87;0.80;;;;;;;;;;5064296;28;20624;-89
2024/03/28 11:24:19;;;;;;;1.40;0.80;;;;;;;;;;5051506;28;20168;-89
2024/03/28 11:27:23;;;;;;;1.43;0.70;;;;;;;;;;5063275;28;20176;-89
2024/03/28 11:30:28;;;;;;;0.97;0.87;;;;;;;;;;5041152;28;20184;-89
2024/03/28 11:33:33;;;;;;;1.77;0.90;;;;;;;;;;5041292;28;20199;-90
2024/03/28 11:36:37;;;;;;;2.37;0.90;;;;;;;;;;5062542;28;20218;-85
2024/03/28 11:39:42;;;;;;;2.33;1.00;;;;;;;;;;5064032;28;20179;-85
2024/03/28 11:43:14;;;;;;;1.70;1.10;;;;;;;;;;5066576;28;20175;-89
2024/03/28 11:46:42;;;;;;;1.00;0.90;;;;;;;;;;5076196;28;20215;-87
2024/03/28 11:49:48;;;;;;;1.40;0.90;;;;;;;;;;5042610;28;20183;-89
2024/03/28 11:52:53;;;;;;;1.33;0.80;;;;;;;;;;5051725;28;20207;-90
2024/03/28 11:55:58;;;;;;;0.70;0.70;;;;;;;;;;5040684;28;20215;-90
2024/03/28 11:59:03;;;;;;;2.03;1.23;;;;;;;;;;5063784;28;20183;-90
2024/03/28 12:02:07;;;;;;;1.10;0.73;;;;;;;;;;5063292;28;20171;-90
2024/03/28 12:05:12;;;;;;;2.47;0.60;;;;;;;;;;5040780;28;20179;-90
2024/03/28 12:08:20;;;;;;;0.97;0.60;;;;;;;;;;5052032;28;20175;-90
2024/03/28 12:11:24;;;;;;;0.57;0.57;;;;;;;;;;5063451;28;20175;-90
2024/03/28 12:14:28;;;;;;;1.70;0.50;;;;;;;;;;5063033;28;20176;-90
2024/03/28 12:17:32;;;;;;;0.73;0.53;;;;;;;;;;5051619;28;20184;-90
2024/03/28 12:20:39;;;;;;;0.70;0.50;;;;;;;;;;5063062;28;20187;-89
2024/03/28 12:23:44;;;;;;;2.50;0.90;;;;;;;;;;5052603;28;20192;-90
2024/03/28 12:26:48;;;;;;;8.03;4.10;;;;;;;;;;5062648;28;20214;-90
2024/03/28 12:29:52;;;;;;;22.10;11.10;;;;;;;;;;5062779;28;20175;-90
2024/03/28 12:33:05;;;;;;;7.43;2.17;;;;;;;;;;5062869;28;20546;-81
2024/03/28 12:52:14;;;;;;;0.50;0.47;;;;;;;;;;5084119;28;20179;-88
2024/03/28 13:06:29;;;;;;;26.07;16.00;;;;;;;;;;5077869;28;20215;-90
2024/03/28 13:16:54;;;;;;;1.83;1.40;;;;;;;;;;4981504;28;20215;-89
2024/03/28 14:02:54;;;;;;;0.73;0.73;;;;;;;;;;5083214;28;20180;-89
2024/03/28 14:06:11;;;;;;;1.43;1.03;;;;;;;;;;5054279;28;20208;-87
2024/03/28 14:24:23;;;;;;;4.07;3.33;;;;;;;;;;5004273;28;20189;-86
2024/03/28 14:33:10;;;;;;;8.60;6.20;;;;;;;;;;5002940;28;20201;-88
2024/03/28 14:52:36;;;;;;;0.73;0.73;;;;;;;;;;5080623;28;20164;-88
2024/03/28 14:57:44;;;;;;;2.20;1.70;;;;;;;;;;5013379;28;20221;-87
2024/03/28 15:28:07;;;;;;;2.30;0.90;;;;;;;;;;5012321;28;20562;-88
2024/03/28 15:32:08;;;;;;;1.60;1.30;;;;;;;;;;4966015;28;20194;-86
2024/03/28 15:35:40;;;;;;;1.07;0.97;;;;;;;;;;5007391;28;20203;-86
2024/03/28 15:39:07;;;;;;;1.40;1.30;;;;;;;;;;5054677;28;20184;-86
2024/03/28 15:42:37;;;;;;;1.10;0.97;;;;;;;;;;5043864;28;20187;-86
2024/03/28 15:45:41;;;;;;;1.30;0.90;;;;;;;;;;5080993;28;20215;-86
2024/03/28 15:48:49;;;;;;;2.20;0.97;;;;;;;;;;5044493;28;20180;-86
2024/03/28 15:51:57;;;;;;;3.70;3.17;;;;;;;;;;5064429;28;20181;-86
2024/03/28 15:55:02;;;;;;;1.93;1.40;;;;;;;;;;5063817;28;20179;-86
2024/03/28 15:58:21;;;;;;;1.93;1.50;;;;;;;;;;5052119;28;20184;-86
2024/03/28 16:44:04;;;;;;;2.63;1.20;;;;;;;;;;5078116;28;20210;-88
2024/03/28 17:13:49;;;;;;;2.10;1.50;;;;;;;;;;5064295;28;20227;-90
2024/03/28 18:16:27;;;;;;;1.00;0.90;;;;;;;;;;4950824;29;20225;-88
2024/03/28 18:19:33;;;;;;;0.77;0.77;;;;;;;;;;4938877;29;20195;-87
2024/03/28 18:22:39;;;;;;;1.00;0.80;;;;;;;;;;4925698;29;20203;-87
2024/03/28 18:56:48;;;;;;;1.17;0.70;;;;;;;;;;5003363;28;20221;-88
2024/03/28 18:59:52;;;;;;;0.90;0.60;;;;;;;;;;4994332;28;20201;-88
2024/03/28 19:02:57;;;;;;;0.70;0.70;;;;;;;;;;5004671;28;20181;-88
2024/03/28 19:06:02;;;;;;;1.00;0.70;;;;;;;;;;4994554;28;20218;-88
2024/03/28 19:09:06;;;;;;;1.93;0.83;;;;;;;;;;4993954;28;20181;-88
2024/03/28 19:12:10;;;;;;;3.90;0.90;;;;;;;;;;5050847;28;20542;-87
2024/03/28 19:15:14;;;;;;;1.30;0.80;;;;;;;;;;5043281;28;20207;-88
2024/03/28 19:18:21;;;;;;;0.93;0.83;;;;;;;;;;5042094;28;20644;-87
2024/03/28 19:21:27;;;;;;;1.87;0.90;;;;;;;;;;5043669;28;20632;-88
2024/03/28 19:24:35;;;;;;;1.30;0.93;;;;;;;;;;5045564;28;20175;-88
2024/03/28 19:27:39;;;;;;;1.17;0.70;;;;;;;;;;5042979;28;20560;-88
2024/03/28 19:30:46;;;;;;;2.20;1.10;;;;;;;;;;5042525;28;20180;-88
2024/03/28 19:33:50;;;;;;;1.60;0.80;;;;;;;;;;5031181;28;20212;-88
2024/03/28 19:36:54;;;;;;;2.07;0.87;;;;;;;;;;5042892;28;20219;-88
2024/03/28 19:39:59;;;;;;;1.23;0.70;;;;;;;;;;5065660;28;20183;-88
2024/03/28 19:43:03;;;;;;;1.00;0.80;;;;;;;;;;5054454;28;20179;-88
2024/03/28 19:46:10;;;;;;;1.77;0.80;;;;;;;;;;5065579;28;20214;-88
2024/03/28 19:49:14;;;;;;;2.63;0.87;;;;;;;;;;5043139;28;20184;-88
2024/03/28 19:52:20;;;;;;;2.60;0.90;;;;;;;;;;5044092;28;20183;-88
2024/03/28 19:55:24;;;;;;;1.80;0.70;;;;;;;;;;5041969;28;20231;-89
2024/03/28 19:58:29;;;;;;;2.87;0.90;;;;;;;;;;5066721;28;20206;-89
2024/03/28 20:01:34;;;;;;;4.00;0.80;;;;;;;;;;5044243;28;20187;-89
2024/03/28 20:04:38;;;;;;;1.13;0.80;;;;;;;;;;5044718;28;20176;-89
2024/03/28 20:07:46;;;;;;;1.07;0.90;;;;;;;;;;5044580;28;20183;-89
2024/03/28 20:10:55;;;;;;;1.57;0.87;;;;;;;;;;5067653;28;20175;-89
2024/03/28 20:13:59;;;;;;;1.77;0.90;;;;;;;;;;5055031;28;20208;-89
2024/03/28 20:17:03;;;;;;;1.73;0.80;;;;;;;;;;5066290;28;20219;-89
2024/03/28 20:20:09;;;;;;;1.93;1.00;;;;;;;;;;5066158;28;20547;-89
2024/03/28 20:23:13;;;;;;;1.33;0.80;;;;;;;;;;5043526;28;20179;-89
2024/03/28 20:26:17;;;;;;;1.27;0.80;;;;;;;;;;5067689;28;20215;-89
2024/03/28 20:29:21;;;;;;;1.00;0.60;;;;;;;;;;5066801;28;20188;-89
2024/03/28 20:32:27;;;;;;;1.20;0.90;;;;;;;;;;5066134;28;20180;-89
2024/03/28 20:35:31;;;;;;;2.97;0.90;;;;;;;;;;5068287;28;20239;-89
2024/03/28 20:38:36;;;;;;;1.00;0.70;;;;;;;;;;5072619;28;20648;-89
2024/03/28 20:41:41;;;;;;;1.37;0.70;;;;;;;;;;5070685;28;20179;-89
2024/03/28 20:44:45;;;;;;;0.90;0.73;;;;;;;;;;5071425;28;20175;-89
2024/03/28 20:47:49;;;;;;;2.67;1.00;;;;;;;;;;5070920;28;20179;-89
2024/03/28 20:50:53;;;;;;;2.17;1.00;;;;;;;;;;5066035;28;20180;-89
2024/03/28 20:53:57;;;;;;;0.87;0.70;;;;;;;;;;5061994;28;20199;-89
2024/03/28 20:57:02;;;;;;;1.20;0.70;;;;;;;;;;5072855;28;20215;-89
2024/03/28 21:00:07;;;;;;;2.93;0.80;;;;;;;;;;5061701;28;20183;-89
2024/03/28 21:03:12;;;;;;;0.97;0.80;;;;;;;;;;5073984;28;20179;-89
2024/03/28 21:13:02;;;;;;;1.63;0.80;;;;;;;;;;5075258;28;20176;-89
2024/03/28 21:16:06;;;;;;;0.73;0.67;;;;;;;;;;5052324;28;20696;-90
2024/03/28 21:19:11;;;;;;;1.00;0.80;;;;;;;;;;5074621;28;20179;-89
2024/03/28 21:22:15;;;;;;;0.97;0.80;;;;;;;;;;5074652;28;20187;-89
2024/03/28 21:25:20;;;;;;;1.97;0.70;;;;;;;;;;5063197;28;20580;-89
2024/03/28 21:28:25;;;;;;;1.57;0.90;;;;;;;;;;5069025;28;20180;-89
2024/03/28 21:31:32;;;;;;;1.47;0.80;;;;;;;;;;5065600;28;20163;-90
2024/03/28 21:34:40;;;;;;;2.33;1.03;;;;;;;;;;5065393;28;20207;-90
2024/03/28 21:37:44;;;;;;;2.30;0.80;;;;;;;;;;5053741;28;20184;-90
2024/03/28 21:40:55;;;;;;;0.80;0.80;;;;;;;;;;5064965;28;20184;-90
2024/03/28 21:44:02;;;;;;;1.00;0.80;;;;;;;;;;5075789;28;20171;-90
2024/03/28 21:47:06;;;;;;;1.23;0.80;;;;;;;;;;5053204;28;20219;-90
2024/03/28 21:50:10;;;;;;;0.80;0.63;;;;;;;;;;5065037;28;20179;-90
2024/03/28 21:53:15;;;;;;;0.87;0.70;;;;;;;;;;5070989;28;20183;-90
2024/03/28 21:56:19;;;;;;;4.70;0.83;;;;;;;;;;5070607;28;20212;-90
2024/03/28 21:59:24;;;;;;;1.77;0.70;;;;;;;;;;5048362;28;20203;-90
2024/03/28 22:02:28;;;;;;;0.93;0.70;;;;;;;;;;5059043;28;20183;-90
2024/03/28 22:05:32;;;;;;;0.67;0.67;;;;;;;;;;5058719;28;20210;-90
2024/03/28 22:08:38;;;;;;;0.53;0.53;;;;;;;;;;5069636;28;20184;-90
2024/03/28 22:11:42;;;;;;;1.17;0.80;;;;;;;;;;5058087;28;20183;-90
2024/03/28 22:14:46;;;;;;;2.73;0.70;;;;;;;;;;5058523;28;20207;-90
2024/03/28 22:17:51;;;;;;;0.80;0.60;;;;;;;;;;5069334;28;20184;-90
2024/03/28 22:20:55;;;;;;;1.23;0.93;;;;;;;;;;5046738;28;20180;-89
2024/03/28 22:24:00;;;;;;;0.77;0.70;;;;;;;;;;5057810;28;20179;-90
2024/03/28 22:27:04;;;;;;;1.33;1.00;;;;;;;;;;5069513;28;20219;-90
2024/03/28 22:30:10;;;;;;;1.03;0.70;;;;;;;;;;5068963;28;20184;-90
2024/03/28 22:33:16;;;;;;;2.30;0.90;;;;;;;;;;5057301;28;20184;-90
2024/03/28 22:36:20;;;;;;;3.20;1.00;;;;;;;;;;5056890;28;20691;-90
2024/03/28 22:39:24;;;;;;;1.23;0.80;;;;;;;;;;5067040;28;20184;-90
2024/03/28 22:42:28;;;;;;;3.20;1.00;;;;;;;;;;5054489;28;20191;-89
2024/03/28 22:45:33;;;;;;;1.60;1.00;;;;;;;;;;5042769;28;20215;-89
2024/03/28 22:48:37;;;;;;;2.53;0.83;;;;;;;;;;5042422;28;20541;-90
2024/03/28 22:51:41;;;;;;;1.07;0.80;;;;;;;;;;5042727;28;20184;-90
2024/03/28 22:54:45;;;;;;;1.73;0.90;;;;;;;;;;5053552;28;20576;-90
2024/03/28 22:57:53;;;;;;;1.40;0.93;;;;;;;;;;5052986;28;20179;-90
2024/03/28 23:00:58;;;;;;;1.23;0.70;;;;;;;;;;5052396;28;20179;-90
2024/03/28 23:04:03;;;;;;;2.90;1.17;;;;;;;;;;5041484;28;20179;-89
2024/03/28 23:07:07;;;;;;;1.87;1.23;;;;;;;;;;5051979;28;20211;-90
2024/03/28 23:10:12;;;;;;;1.07;0.80;;;;;;;;;;5063481;28;20171;-89
2024/03/28 23:13:16;;;;;;;1.20;0.90;;;;;;;;;;5063792;28;20175;-89
2024/03/28 23:16:21;;;;;;;3.20;0.93;;;;;;;;;;5075797;28;20226;-89
2024/03/28 23:19:25;;;;;;;1.90;0.87;;;;;;;;;;5052374;28;20187;-90
2024/03/28 23:22:30;;;;;;;1.13;0.90;;;;;;;;;;5063257;28;20632;-89
2024/03/28 23:25:34;;;;;;;2.60;1.10;;;;;;;;;;5063582;28;20207;-89
2024/03/28 23:28:38;;;;;;;2.33;1.40;;;;;;;;;;5051412;28;20191;-89
2024/03/28 23:31:42;;;;;;;1.90;1.20;;;;;;;;;;5051349;28;20184;-89
2024/03/28 23:34:46;;;;;;;2.23;1.30;;;;;;;;;;5052121;28;20207;-89
2024/03/28 23:37:51;;;;;;;4.60;1.20;;;;;;;;;;5041761;28;20613;-89
2024/03/28 23:40:59;;;;;;;1.80;1.03;;;;;;;;;;5063740;28;20175;-89
2024/03/28 23:44:03;;;;;;;3.10;1.03;;;;;;;;;;5063446;28;20180;-89
2024/03/28 23:47:07;;;;;;;1.53;1.00;;;;;;;;;;5051868;28;20212;-89
2024/03/28 23:50:11;;;;;;;2.50;1.20;;;;;;;;;;5063325;28;20540;-89
2024/03/28 23:53:16;;;;;;;1.80;1.20;;;;;;;;;;5063237;28;20179;-90
2024/03/28 23:56:20;;;;;;;2.13;1.10;;;;;;;;;;5040872;28;20227;-89
2024/03/28 23:59:24;;;;;;;1.93;1.43;;;;;;;;;;5051759;28;20560;-89
